Time;durP1;ratioP1;P1;durP2;ratioP2;P2;SDS_P1;SDS_P2;PMS_P1;PMS_P2;Temp;Humidity;BMP_temperature;BMP_pressure;BME280_temperature;BME280_humidity;BME280_pressure;Samples;Min_cycle;Max_cycle;Signal;HPM_P1;HPM_P2
2024/04/04 00:01:53;;;;;;;3.00;0.85;;;;;;;10.93;46.25;100467.88;5017858;28;20034;-78
2024/04/04 00:04:19;;;;;;;1.88;0.90;;;;;;;10.91;46.06;100473.47;5013891;28;20046;-79
2024/04/04 00:06:48;;;;;;;4.30;1.10;;;;;;;10.90;46.05;100469.00;5003166;28;20040;-79
2024/04/04 00:09:14;;;;;;;3.60;1.38;;;;;;;10.88;45.97;100471.06;5008014;28;20049;-78
2024/04/04 00:11:41;;;;;;;3.75;1.25;;;;;;;10.87;46.18;100468.47;5034630;28;20133;-78
2024/04/04 00:14:07;;;;;;;1.75;0.95;;;;;;;10.85;46.24;100471.34;5004350;28;20047;-79
2024/04/04 00:16:34;;;;;;;2.63;1.00;;;;;;;10.85;46.21;100463.13;5004575;28;20033;-78
2024/04/04 00:19:00;;;;;;;2.50;0.80;;;;;;;10.84;46.38;100453.19;5009283;28;20054;-79
2024/04/04 00:21:27;;;;;;;2.10;0.77;;;;;;;10.83;46.45;100450.59;5011175;28;20055;-79
2024/04/04 00:23:56;;;;;;;3.05;1.20;;;;;;;10.83;46.71;100453.31;5002337;28;20053;-79
2024/04/04 00:26:23;;;;;;;3.85;0.98;;;;;;;10.80;46.74;100443.53;5017876;28;20049;-78
2024/04/04 00:28:49;;;;;;;1.80;0.90;;;;;;;10.80;46.44;100442.69;5006982;28;20495;-78
2024/04/04 00:31:16;;;;;;;2.00;0.80;;;;;;;10.79;46.34;100446.44;5007248;28;20049;-79
2024/04/04 00:33:42;;;;;;;3.47;1.10;;;;;;;10.77;46.59;100437.50;5022356;28;20049;-79
2024/04/04 00:36:10;;;;;;;2.08;0.88;;;;;;;10.75;46.35;100431.28;5004090;28;20040;-79
2024/04/04 00:38:36;;;;;;;1.73;0.75;;;;;;;10.75;46.34;100431.28;5002387;28;20038;-79
2024/04/04 00:41:04;;;;;;;2.42;0.95;;;;;;;10.76;46.69;100422.06;5003992;28;20425;-79
2024/04/04 00:43:30;;;;;;;4.63;1.00;;;;;;;10.73;46.33;100423.22;5024164;28;20101;-79
2024/04/04 00:45:57;;;;;;;4.65;0.80;;;;;;;10.73;46.47;100412.28;5001981;28;20049;-79
2024/04/04 00:48:24;;;;;;;3.03;0.88;;;;;;;10.72;46.35;100409.72;5007538;28;20041;-79
2024/04/04 00:50:54;;;;;;;3.13;0.88;;;;;;;10.72;45.98;100406.97;5005869;28;20128;-79
2024/04/04 00:53:23;;;;;;;2.50;0.90;;;;;;;10.70;46.31;100408.97;5020533;28;20041;-79
2024/04/04 00:55:51;;;;;;;2.97;1.00;;;;;;;10.69;46.36;100407.25;5020754;28;20441;-79
2024/04/04 00:58:19;;;;;;;3.55;0.95;;;;;;;10.69;46.94;100402.63;5023387;28;20070;-78
2024/04/04 01:00:46;;;;;;;3.15;0.90;;;;;;;10.67;46.94;100406.53;5020868;28;20041;-79
2024/04/04 01:03:13;;;;;;;2.75;0.80;;;;;;;10.67;46.76;100406.53;5017718;28;20513;-79
2024/04/04 01:05:40;;;;;;;2.78;0.85;;;;;;;10.66;46.31;100391.09;5021840;28;20096;-78
2024/04/04 01:08:07;;;;;;;4.03;0.90;;;;;;;10.67;46.39;100393.69;5011357;28;20045;-79
2024/04/04 01:10:34;;;;;;;3.58;0.85;;;;;;;10.66;46.60;100389.22;5027878;28;20287;-78
2024/04/04 01:13:01;;;;;;;2.35;0.90;;;;;;;10.66;46.33;100396.56;5026535;28;20096;-79
2024/04/04 01:15:29;;;;;;;3.30;0.90;;;;;;;10.66;46.40;100389.22;5028806;28;20040;-79
2024/04/04 01:17:58;;;;;;;1.77;0.85;;;;;;;10.65;46.52;100392.16;5011644;28;20042;-79
2024/04/04 01:20:24;;;;;;;2.20;1.15;;;;;;;10.66;46.38;100385.63;5007295;28;20100;-79
2024/04/04 01:22:51;;;;;;;2.22;1.00;;;;;;;10.65;46.61;100373.81;5023943;28;20042;-79
2024/04/04 01:25:18;;;;;;;2.83;1.00;;;;;;;10.67;46.93;100369.06;5007965;28;20512;-78
2024/04/04 01:27:48;;;;;;;4.28;1.30;;;;;;;10.66;46.90;100369.22;5025790;28;20038;-79
2024/04/04 01:30:14;;;;;;;2.95;1.20;;;;;;;10.65;46.75;100360.13;5020927;28;20100;-79
2024/04/04 01:32:41;;;;;;;5.60;1.40;;;;;;;10.65;46.68;100365.63;5024960;28;20037;-79
2024/04/04 01:35:07;;;;;;;2.30;1.05;;;;;;;10.67;46.99;100365.47;5022268;28;20381;-78
2024/04/04 01:37:34;;;;;;;3.92;1.35;;;;;;;10.67;47.06;100355.38;5012453;28;20038;-79
2024/04/04 01:40:00;;;;;;;3.60;1.30;;;;;;;10.67;46.78;100352.66;5028797;28;20038;-79
2024/04/04 01:42:28;;;;;;;3.10;1.40;;;;;;;10.69;47.08;100347.91;5029395;28;20064;-79
2024/04/04 01:44:54;;;;;;;4.70;1.40;;;;;;;10.68;46.94;100348.91;5012007;28;20076;-79
2024/04/04 01:47:21;;;;;;;3.35;1.20;;;;;;;10.69;47.27;100345.16;5012885;28;20049;-79
2024/04/04 01:49:47;;;;;;;3.45;1.20;;;;;;;10.69;46.94;100339.69;5026893;28;20216;-79
2024/04/04 01:52:14;;;;;;;3.65;1.20;;;;;;;10.70;47.10;100337.81;5009863;28;20076;-79
2024/04/04 01:54:40;;;;;;;3.90;1.35;;;;;;;10.70;47.08;100329.59;5009393;28;20041;-78
2024/04/04 01:57:07;;;;;;;3.38;1.00;;;;;;;10.71;46.71;100329.47;5005267;28;20037;-78
2024/04/04 01:59:35;;;;;;;4.13;1.20;;;;;;;10.72;46.92;100316.66;5029763;28;20257;-79
2024/04/04 02:02:02;;;;;;;3.40;1.10;;;;;;;10.72;46.65;100325.72;5010218;28;20049;-79
2024/04/04 02:04:28;;;;;;;2.55;1.30;;;;;;;10.71;46.54;100321.25;5003082;28;20046;-79
2024/04/04 02:06:55;;;;;;;3.72;1.33;;;;;;;10.71;46.58;100321.25;5024942;28;20045;-79
2024/04/04 02:09:22;;;;;;;3.83;1.30;;;;;;;10.73;47.13;100315.63;5029378;28;20056;-79
2024/04/04 02:11:49;;;;;;;2.58;1.30;;;;;;;10.72;46.70;100312.03;5009373;28;20053;-79
2024/04/04 02:14:15;;;;;;;2.78;1.30;;;;;;;10.74;46.42;100320.06;5024879;28;20357;-78
2024/04/04 02:16:45;;;;;;;3.38;1.55;;;;;;;10.75;46.76;100313.59;5022545;28;20063;-78
2024/04/04 02:19:11;;;;;;;2.75;1.25;;;;;;;10.74;46.54;100306.38;5026082;28;20193;-78
2024/04/04 02:21:38;;;;;;;3.25;1.20;;;;;;;10.74;46.78;100309.13;5027457;28;20057;-78
2024/04/04 02:24:04;;;;;;;3.20;1.42;;;;;;;10.74;46.53;100307.25;5021066;28;20065;-79
2024/04/04 02:26:32;;;;;;;2.38;1.20;;;;;;;10.75;46.27;100308.13;5012668;28;20037;-78
2024/04/04 02:28:59;;;;;;;2.50;1.08;;;;;;;10.75;46.55;100305.38;5009571;28;20041;-78
2024/04/04 02:31:26;;;;;;;2.92;1.17;;;;;;;10.74;46.76;100289.97;5009408;28;20041;-78
2024/04/04 02:33:53;;;;;;;1.95;0.90;;;;;;;10.76;46.33;100288.81;5022500;28;20049;-79
2024/04/04 02:36:21;;;;;;;3.60;1.30;;;;;;;10.74;46.35;100293.56;5007641;28;20042;-79
2024/04/04 02:38:47;;;;;;;1.33;0.82;;;;;;;10.74;46.78;100287.22;5009825;28;20042;-79
2024/04/04 02:41:14;;;;;;;1.75;0.80;;;;;;;10.75;46.82;100283.47;5008118;28;20061;-79
2024/04/04 02:43:40;;;;;;;2.90;1.08;;;;;;;10.74;46.68;100281.75;5008197;28;20033;-79
2024/04/04 02:46:07;;;;;;;3.38;1.25;;;;;;;10.74;46.38;100276.28;5023790;28;20096;-79
2024/04/04 02:48:33;;;;;;;4.40;1.40;;;;;;;10.75;46.73;100276.13;5030134;28;20066;-79
2024/04/04 02:51:02;;;;;;;3.97;1.30;;;;;;;10.75;46.55;100273.41;5007974;28;20046;-79
2024/04/04 02:53:28;;;;;;;2.53;1.05;;;;;;;10.74;47.25;100263.47;5006485;28;20084;-79
2024/04/04 02:55:56;;;;;;;2.28;1.15;;;;;;;10.75;47.28;100267.94;5026486;28;20393;-78
2024/04/04 02:58:23;;;;;;;3.28;0.98;;;;;;;10.76;47.58;100268.78;5026738;28;20033;-79
2024/04/04 03:00:50;;;;;;;3.00;1.08;;;;;;;10.76;47.09;100266.06;5026873;28;20105;-79
2024/04/04 03:03:16;;;;;;;2.90;0.95;;;;;;;10.76;47.52;100260.59;5022992;28;20075;-79
2024/04/04 03:05:43;;;;;;;2.35;1.20;;;;;;;10.77;47.83;100262.31;5021892;28;20050;-79
2024/04/04 03:08:13;;;;;;;2.85;1.17;;;;;;;10.77;47.57;100254.97;5021527;28;20095;-79
2024/04/04 03:10:41;;;;;;;2.50;1.00;;;;;;;10.76;47.56;100255.97;5001408;28;20053;-79
2024/04/04 03:13:07;;;;;;;3.40;1.10;;;;;;;10.76;47.96;100255.09;5018320;28;20504;-77
2024/04/04 03:15:34;;;;;;;3.15;1.20;;;;;;;10.74;47.89;100244.31;5009154;28;20061;-78
2024/04/04 03:18:00;;;;;;;2.25;1.10;;;;;;;10.73;47.93;100247.22;5013989;28;20046;-78
2024/04/04 03:20:28;;;;;;;2.72;1.00;;;;;;;10.73;48.46;100247.22;5012125;28;20057;-77
2024/04/04 03:22:56;;;;;;;1.70;0.95;;;;;;;10.70;48.22;100233.81;5012334;28;20413;-78
2024/04/04 03:25:25;;;;;;;3.13;1.10;;;;;;;10.70;48.89;100234.69;4994941;28;20045;-78
2024/04/04 03:27:50;;;;;;;2.95;0.95;;;;;;;10.67;48.46;100229.50;5009171;28;20030;-77
2024/04/04 03:30:18;;;;;;;3.50;1.60;;;;;;;10.66;48.71;100221.44;4993416;28;20065;-78
2024/04/04 03:32:45;;;;;;;3.45;1.20;;;;;;;10.64;49.33;100215.28;5002835;28;20052;-78
2024/04/04 03:35:12;;;;;;;3.10;1.05;;;;;;;10.63;49.20;100221.75;4995694;28;20042;-78
2024/04/04 03:37:37;;;;;;;2.60;1.17;;;;;;;10.63;49.55;100213.53;5015502;28;20049;-77
2024/04/04 03:40:06;;;;;;;2.67;1.15;;;;;;;10.62;49.55;100214.56;5004090;28;20038;-78
2024/04/04 03:42:34;;;;;;;2.92;1.67;;;;;;;10.61;49.40;100208.22;5013324;28;20049;-78
2024/04/04 03:45:00;;;;;;;3.30;1.50;;;;;;;10.58;49.34;100200.31;4992927;28;20042;-78
2024/04/04 03:47:27;;;;;;;1.95;1.17;;;;;;;10.57;49.97;100202.16;5010620;28;20041;-78
2024/04/04 03:49:53;;;;;;;5.75;1.58;;;;;;;10.55;49.61;100193.28;4996780;28;20045;-78
2024/04/04 03:52:21;;;;;;;2.50;1.20;;;;;;;10.54;49.95;100194.28;5008609;28;20074;-78
2024/04/04 03:54:46;;;;;;;2.03;1.25;;;;;;;10.53;49.83;100186.19;4990801;28;20048;-78
2024/04/04 03:57:16;;;;;;;2.90;1.17;;;;;;;10.51;50.10;100178.13;4994063;28;20501;-78
2024/04/04 03:59:44;;;;;;;3.00;1.30;;;;;;;10.52;50.01;100173.50;5005006;28;20040;-78
2024/04/04 04:02:11;;;;;;;3.20;1.48;;;;;;;10.49;50.25;100165.59;5011963;28;20048;-78
2024/04/04 04:04:37;;;;;;;2.67;1.30;;;;;;;10.47;50.04;100171.25;5006652;28;20570;-77
2024/04/04 04:07:04;;;;;;;4.70;1.42;;;;;;;10.47;50.24;100163.03;5008585;28;20052;-78
2024/04/04 04:09:30;;;;;;;2.25;1.13;;;;;;;10.47;50.21;100168.50;5009682;28;20095;-78
2024/04/04 04:11:57;;;;;;;3.08;1.35;;;;;;;10.47;50.34;100164.91;4993485;28;20053;-78
2024/04/04 04:14:23;;;;;;;4.57;1.50;;;;;;;10.46;50.75;100169.53;4994059;28;20049;-78
2024/04/04 04:16:51;;;;;;;3.15;1.40;;;;;;;10.46;51.04;100153.09;4991763;28;20121;-78
2024/04/04 04:19:17;;;;;;;2.83;1.40;;;;;;;10.43;50.91;100161.59;4995779;28;20042;-78
2024/04/04 04:21:44;;;;;;;4.43;1.83;;;;;;;10.44;50.65;100154.25;5006600;28;20112;-78
2024/04/04 04:24:11;;;;;;;3.88;1.55;;;;;;;10.42;50.90;100146.19;4983667;28;20041;-78
2024/04/04 04:26:37;;;;;;;3.80;1.55;;;;;;;10.42;51.18;100150.81;4994540;28;20046;-78
2024/04/04 04:29:04;;;;;;;3.47;1.48;;;;;;;10.41;51.27;100141.72;5013102;28;20119;-78
2024/04/04 04:31:32;;;;;;;2.58;1.30;;;;;;;10.42;51.15;100139.88;5007677;28;20037;-78
2024/04/04 04:34:02;;;;;;;2.55;1.40;;;;;;;10.43;51.46;100149.78;5009763;28;20049;-78
2024/04/04 04:36:30;;;;;;;3.15;1.40;;;;;;;10.41;50.94;100135.41;4988974;28;20052;-77
2024/04/04 04:38:57;;;;;;;4.05;1.60;;;;;;;10.40;51.21;100140.00;5009254;28;20045;-78
2024/04/04 04:41:24;;;;;;;4.32;1.80;;;;;;;10.41;51.35;100133.53;5009203;28;20083;-77
2024/04/04 04:43:50;;;;;;;3.88;1.73;;;;;;;10.41;51.69;100133.53;4998017;28;20049;-79
2024/04/04 04:46:18;;;;;;;3.45;2.00;;;;;;;10.42;51.24;100134.38;5010665;28;20503;-78
2024/04/04 04:48:44;;;;;;;3.38;1.77;;;;;;;10.43;51.91;100134.25;4987937;28;20103;-79
2024/04/04 04:51:13;;;;;;;3.80;1.90;;;;;;;10.45;51.76;100123.16;5011130;28;20061;-78
2024/04/04 04:53:41;;;;;;;4.35;2.40;;;;;;;10.45;52.08;100114.94;5007252;28;20509;-77
2024/04/04 04:56:08;;;;;;;5.28;1.90;;;;;;;10.45;51.67;100113.06;5007961;28;20037;-77
2024/04/04 04:58:34;;;;;;;3.58;1.80;;;;;;;10.45;52.05;100106.75;4991028;28;20347;-78
2024/04/04 05:01:03;;;;;;;4.72;2.00;;;;;;;10.47;52.13;100107.47;5012781;28;20046;-77
2024/04/04 05:03:29;;;;;;;4.15;2.00;;;;;;;10.48;52.29;100118.22;4989120;28;20052;-78
2024/04/04 05:05:56;;;;;;;4.07;2.03;;;;;;;10.49;52.30;100106.28;5007435;28;20517;-78
2024/04/04 05:08:23;;;;;;;5.80;2.13;;;;;;;10.53;52.60;100099.53;4987880;28;20405;-78
2024/04/04 05:10:51;;;;;;;3.58;1.88;;;;;;;10.54;52.46;100097.66;4985567;28;20045;-78
2024/04/04 05:13:17;;;;;;;5.78;1.90;;;;;;;10.55;52.06;100099.38;5009481;28;20432;-77
2024/04/04 05:15:45;;;;;;;4.28;1.80;;;;;;;10.57;52.00;100089.13;5003707;28;20045;-78
2024/04/04 05:18:11;;;;;;;3.58;1.83;;;;;;;10.56;52.33;100081.97;5008430;28;20042;-77
2024/04/04 05:20:39;;;;;;;2.58;1.55;;;;;;;10.58;52.03;100088.97;4990629;28;20041;-77
2024/04/04 05:23:05;;;;;;;3.65;1.85;;;;;;;10.60;52.19;100083.34;5005015;28;20095;-76
2024/04/04 05:25:33;;;;;;;3.30;1.70;;;;;;;10.63;52.61;100080.31;4994042;28;20450;-77
2024/04/04 05:27:59;;;;;;;4.03;1.80;;;;;;;10.61;52.83;100076.88;4996055;28;20041;-77
2024/04/04 05:30:26;;;;;;;3.50;1.90;;;;;;;10.63;52.41;100076.72;4992913;28;20049;-77
2024/04/04 05:32:53;;;;;;;4.40;1.58;;;;;;;10.64;52.36;100071.09;4990673;28;20041;-76
2024/04/04 05:35:20;;;;;;;3.13;1.80;;;;;;;10.64;52.47;100065.63;4992137;28;20045;-78
2024/04/04 05:37:46;;;;;;;3.67;1.70;;;;;;;10.66;52.46;100076.41;4987291;28;20038;-77
2024/04/04 05:40:13;;;;;;;4.57;1.73;;;;;;;10.66;52.95;100073.66;4992200;28;20107;-78
2024/04/04 05:42:40;;;;;;;3.13;1.63;;;;;;;10.69;52.77;100076.09;5007855;28;20042;-77
2024/04/04 05:45:07;;;;;;;2.88;1.60;;;;;;;10.68;52.85;100068.91;4990960;28;20410;-77
2024/04/04 05:47:33;;;;;;;3.65;1.63;;;;;;;10.67;52.91;100070.78;4991026;28;20034;-77
2024/04/04 05:50:00;;;;;;;3.40;1.70;;;;;;;10.68;52.95;100071.63;4998217;28;20558;-77
2024/04/04 05:52:26;;;;;;;3.13;1.63;;;;;;;10.68;53.05;100067.03;4998270;28;20037;-78
2024/04/04 05:54:54;;;;;;;4.43;1.50;;;;;;;10.69;53.43;100073.38;5011703;28;20034;-77
2024/04/04 05:57:20;;;;;;;2.40;1.38;;;;;;;10.68;53.47;100068.91;4995451;28;20042;-77
2024/04/04 05:59:48;;;;;;;2.47;1.25;;;;;;;10.69;53.73;100065.16;5012602;28;20086;-76
2024/04/04 06:02:14;;;;;;;2.15;1.25;;;;;;;10.69;53.19;100070.63;4991419;28;20050;-77
2024/04/04 06:04:42;;;;;;;2.78;1.10;;;;;;;10.69;53.68;100063.28;5012955;28;20120;-77
2024/04/04 06:07:09;;;;;;;2.10;1.27;;;;;;;10.69;53.75;100063.28;5012782;28;20401;-77
2024/04/04 06:09:36;;;;;;;2.28;1.30;;;;;;;10.70;53.79;100065.00;4996330;28;20056;-78
2024/04/04 06:12:02;;;;;;;2.63;1.30;;;;;;;10.71;53.71;100065.88;4999420;28;20069;-77
2024/04/04 06:14:29;;;;;;;1.73;1.13;;;;;;;10.71;53.77;100061.25;5008433;28;20394;-77
2024/04/04 06:16:57;;;;;;;1.67;0.93;;;;;;;10.73;54.19;100051.00;4999969;28;20049;-78
2024/04/04 06:19:24;;;;;;;2.15;1.27;;;;;;;10.72;53.92;100057.50;4998328;28;20053;-78
2024/04/04 06:21:50;;;;;;;2.20;1.02;;;;;;;10.72;54.12;100037.50;4998181;28;20064;-77
2024/04/04 06:24:17;;;;;;;2.40;0.98;;;;;;;10.73;53.98;100048.25;4998703;28;20417;-77
2024/04/04 06:26:44;;;;;;;3.60;1.10;;;;;;;10.74;54.25;100043.66;5010110;28;20038;-76
2024/04/04 06:29:11;;;;;;;1.52;1.00;;;;;;;10.74;54.37;100036.31;4995798;28;20119;-77
2024/04/04 06:31:37;;;;;;;2.67;1.20;;;;;;;10.75;54.24;100031.69;5010530;28;20044;-77
2024/04/04 06:34:06;;;;;;;2.45;1.38;;;;;;;10.76;54.35;100026.06;5007547;28;20164;-77
2024/04/04 06:36:32;;;;;;;2.90;0.98;;;;;;;10.75;54.38;100024.34;4992439;28;20045;-77
2024/04/04 06:39:04;;;;;;;1.98;1.05;;;;;;;10.76;55.04;100022.47;5008825;28;20048;-77
2024/04/04 06:41:30;;;;;;;3.15;1.05;;;;;;;10.75;54.83;100031.69;5010851;28;20091;-77
2024/04/04 06:43:57;;;;;;;2.72;1.00;;;;;;;10.77;55.08;100030.53;5008546;28;20037;-77
2024/04/04 06:46:24;;;;;;;4.57;1.30;;;;;;;10.78;54.72;100021.31;4995550;28;20049;-77
2024/04/04 06:48:51;;;;;;;2.25;1.15;;;;;;;10.78;54.63;100029.50;5008995;28;20052;-77
2024/04/04 06:51:18;;;;;;;2.50;0.95;;;;;;;10.80;55.37;100026.63;5006176;28;20103;-77
2024/04/04 06:53:45;;;;;;;2.35;1.10;;;;;;;10.81;54.80;100029.19;5001912;28;20119;-77
2024/04/04 06:56:11;;;;;;;2.30;1.20;;;;;;;10.81;55.19;100026.44;5009141;28;20504;-77
2024/04/04 06:58:38;;;;;;;3.22;1.10;;;;;;;10.82;54.82;100011.75;5008523;28;20045;-77
2024/04/04 07:01:04;;;;;;;2.80;1.10;;;;;;;10.83;54.89;100012.59;5008259;28;20046;-76
2024/04/04 07:03:31;;;;;;;3.22;1.00;;;;;;;10.85;55.16;100013.31;4993381;28;20167;-77
2024/04/04 07:05:57;;;;;;;1.63;0.90;;;;;;;10.85;55.12;100010.59;4990111;28;20088;-77
2024/04/04 07:08:26;;;;;;;3.10;1.10;;;;;;;10.87;55.34;100017.63;4992195;28;20502;-77
2024/04/04 07:10:58;;;;;;;2.95;1.10;;;;;;;10.90;56.56;100010.97;4994004;28;20099;-78
2024/04/04 07:13:25;;;;;;;2.13;0.88;;;;;;;10.86;55.38;100010.44;5003343;28;20045;-77
2024/04/04 07:16:00;;;;;;;3.50;1.00;;;;;;;10.92;56.49;100003.47;4990202;28;20037;-77
2024/04/04 07:18:27;;;;;;;3.03;1.15;;;;;;;10.89;55.27;100012.88;5006830;28;20045;-77
2024/04/04 07:20:53;;;;;;;1.88;0.98;;;;;;;10.91;55.38;99999.84;4993339;28;20520;-77
2024/04/04 07:23:20;;;;;;;5.20;1.25;;;;;;;10.92;55.49;100009.78;4989900;28;20049;-76
2024/04/04 07:25:51;;;;;;;2.45;1.10;;;;;;;10.96;56.17;100002.13;4994445;28;20050;-77
2024/04/04 07:28:18;;;;;;;3.65;1.08;;;;;;;10.96;55.47;100007.63;5006353;28;20045;-77
2024/04/04 07:30:44;;;;;;;3.00;1.10;;;;;;;10.95;55.75;99998.53;5007875;28;20547;-78
2024/04/04 07:33:13;;;;;;;4.22;1.50;;;;;;;10.97;55.59;99995.66;5004753;28;20056;-78
2024/04/04 07:35:39;;;;;;;2.65;1.15;;;;;;;10.97;56.15;99998.38;5006115;28;20110;-77
2024/04/04 07:38:06;;;;;;;5.13;1.45;;;;;;;10.98;55.80;99994.59;4991909;28;20041;-78
2024/04/04 07:40:34;;;;;;;3.03;1.15;;;;;;;11.00;56.39;99981.63;4992703;28;20061;-78
2024/04/04 07:43:03;;;;;;;3.22;1.20;;;;;;;11.02;56.57;99986.94;5006928;28;20092;-78
2024/04/04 07:45:30;;;;;;;2.47;1.10;;;;;;;11.00;55.96;99984.34;5006244;28;20045;-78
2024/04/04 07:47:57;;;;;;;4.22;1.30;;;;;;;11.01;56.35;99983.34;4989616;28;20045;-79
2024/04/04 07:50:23;;;;;;;3.28;1.35;;;;;;;11.02;56.07;99990.53;5008042;28;20274;-75
2024/04/04 07:52:51;;;;;;;1.98;1.13;;;;;;;11.04;56.40;99987.66;5006609;28;20180;-75
2024/04/04 07:55:17;;;;;;;3.08;1.20;;;;;;;11.05;56.16;100003.94;4992046;28;20079;-75
2024/04/04 07:57:44;;;;;;;3.67;1.13;;;;;;;11.06;56.60;100011.09;4992358;28;20555;-75
2024/04/04 08:03:00;;;;;;;3.13;1.05;;;;;;;11.09;56.69;100024.50;5017865;28;20049;-74
2024/04/04 08:05:28;;;;;;;2.42;1.08;;;;;;;11.12;56.58;100037.00;4992038;28;20041;-74
2024/04/04 08:07:55;;;;;;;3.00;0.90;;;;;;;11.13;56.46;100036.88;5009056;28;20037;-75
2024/04/04 08:10:22;;;;;;;1.95;1.08;;;;;;;11.15;56.24;100043.00;5008501;28;20056;-77
2024/04/04 08:12:49;;;;;;;2.13;0.90;;;;;;;11.17;56.57;100045.59;4972638;28;20042;-76
2024/04/04 08:15:15;;;;;;;1.50;0.80;;;;;;;11.19;56.47;100036.22;4992739;28;20046;-74
2024/04/04 08:17:42;;;;;;;2.00;0.70;;;;;;;11.22;56.42;100043.28;4985472;28;20037;-76
2024/04/04 08:20:14;;;;;;;1.70;0.60;;;;;;;11.25;56.08;100045.66;4983744;28;20461;-75
2024/04/04 08:22:42;;;;;;;1.00;0.50;;;;;;;11.23;56.38;100040.34;4986059;28;20046;-74
2024/04/04 08:25:08;;;;;;;1.05;0.52;;;;;;;11.26;55.89;100031.81;4982709;28;20429;-74
2024/04/04 08:27:35;;;;;;;1.45;0.50;;;;;;;11.28;56.36;100042.63;4989189;28;20127;-75
2024/04/04 08:30:01;;;;;;;1.05;0.40;;;;;;;11.29;56.10;100023.31;4974095;28;20053;-76
2024/04/04 08:32:28;;;;;;;0.73;0.30;;;;;;;11.29;56.13;100008.75;4975153;28;20034;-76
2024/04/04 08:34:55;;;;;;;1.15;0.35;;;;;;;11.31;55.69;100025.84;4982534;28;20038;-74
2024/04/04 08:37:28;;;;;;;0.70;0.35;;;;;;;11.32;56.02;100041.28;4974779;28;20097;-74
2024/04/04 08:39:54;;;;;;;0.95;0.30;;;;;;;11.32;55.97;100072.28;4984159;28;20469;-75
2024/04/04 08:42:23;;;;;;;1.90;0.35;;;;;;;11.34;55.94;100063.91;4964322;28;20401;-75
2024/04/04 08:44:51;;;;;;;1.60;0.65;;;;;;;11.33;55.66;100059.44;4983147;28;20448;-75
2024/04/04 08:47:20;;;;;;;0.55;0.28;;;;;;;11.35;56.02;100073.84;4990462;28;20046;-75
2024/04/04 08:49:47;;;;;;;1.45;0.38;;;;;;;11.35;55.95;100090.28;4960354;28;20465;-76
2024/04/04 08:52:14;;;;;;;0.75;0.30;;;;;;;11.35;56.09;100093.03;4972011;28;20060;-76
2024/04/04 08:54:42;;;;;;;0.40;0.28;;;;;;;11.38;55.60;100089.13;4978468;28;20042;-75
2024/04/04 08:57:09;;;;;;;0.82;0.40;;;;;;;11.38;56.30;100091.84;4975581;28;20046;-76
2024/04/04 08:59:35;;;;;;;1.20;0.40;;;;;;;11.39;56.05;100088.94;4987506;28;20080;-75
2024/04/04 09:02:02;;;;;;;1.67;0.40;;;;;;;11.42;56.21;100099.59;4976461;28;20045;-76
2024/04/04 09:04:30;;;;;;;0.70;0.40;;;;;;;11.43;56.30;100101.31;4982781;28;20069;-76
2024/04/04 09:06:58;;;;;;;0.98;0.40;;;;;;;11.47;56.11;100115.56;5006393;28;20419;-76
2024/04/04 09:09:24;;;;;;;0.77;0.38;;;;;;;11.48;56.61;100120.00;4991253;28;20130;-76
2024/04/04 09:11:53;;;;;;;1.00;0.50;;;;;;;11.52;56.39;100124.16;4986066;28;20493;-75
2024/04/04 09:14:19;;;;;;;0.75;0.43;;;;;;;11.52;56.41;100130.50;4977138;28;20461;-74
2024/04/04 09:16:47;;;;;;;0.85;0.43;;;;;;;11.56;56.29;100136.50;5006399;28;20076;-75
2024/04/04 09:19:14;;;;;;;1.08;0.35;;;;;;;11.57;56.23;100128.13;4988897;28;20042;-75
2024/04/04 09:21:44;;;;;;;1.98;0.60;;;;;;;11.60;55.74;100129.72;4997417;28;20038;-76
2024/04/04 09:24:13;;;;;;;0.93;0.40;;;;;;;11.61;55.88;100135.06;5011456;28;20041;-76
2024/04/04 09:26:40;;;;;;;0.73;0.17;;;;;;;11.62;56.14;100144.16;4995351;28;20046;-75
2024/04/04 09:29:09;;;;;;;0.88;0.30;;;;;;;11.65;56.12;100141.94;5011476;28;20057;-75
2024/04/04 09:31:39;;;;;;;1.00;0.45;;;;;;;11.66;55.99;100132.69;4994532;28;20038;-76
2024/04/04 09:34:05;;;;;;;0.65;0.30;;;;;;;11.66;55.51;100135.44;4978059;28;20034;-74
2024/04/04 09:36:34;;;;;;;0.20;0.20;;;;;;;11.68;55.77;100138.88;5011733;28;20041;-76
2024/04/04 09:39:02;;;;;;;0.43;0.40;;;;;;;11.69;56.14;100137.00;4995358;28;20062;-76
2024/04/04 09:41:30;;;;;;;0.57;0.40;;;;;;;11.72;55.83;100148.50;4998266;28;20052;-76
2024/04/04 09:43:57;;;;;;;0.32;0.30;;;;;;;11.74;56.18;100145.59;5010658;28;20034;-75
2024/04/04 09:46:27;;;;;;;0.50;0.30;;;;;;;11.78;56.15;100160.72;5004476;28;20257;-75
2024/04/04 09:48:53;;;;;;;0.95;0.50;;;;;;;11.80;56.19;100158.66;5008005;28;20087;-75
2024/04/04 09:51:20;;;;;;;1.60;0.55;;;;;;;11.82;56.33;100170.34;5012355;28;20056;-75
2024/04/04 09:53:48;;;;;;;0.57;0.45;;;;;;;11.88;56.17;100161.50;4994320;28;20066;-74
2024/04/04 09:56:17;;;;;;;1.45;0.50;;;;;;;11.93;56.31;100169.22;4999252;28;20053;-75
2024/04/04 09:58:43;;;;;;;1.13;0.40;;;;;;;11.95;56.13;100172.69;4990025;28;20053;-75
2024/04/04 10:01:13;;;;;;;0.57;0.40;;;;;;;11.98;55.47;100155.91;4991096;28;20532;-75
2024/04/04 10:03:55;;;;;;;1.13;0.50;;;;;;;12.03;55.55;100162.63;4998089;28;20049;-75
2024/04/04 10:06:30;;;;;;;1.70;0.55;;;;;;;12.03;55.52;100179.09;4994928;28;20046;-74
2024/04/04 10:08:57;;;;;;;1.08;0.57;;;;;;;12.07;55.42;100183.22;4987559;28;20042;-75
2024/04/04 10:11:33;;;;;;;1.52;0.70;;;;;;;12.11;54.78;100184.63;5011385;28;20332;-74
2024/04/04 10:14:00;;;;;;;0.95;0.40;;;;;;;12.11;55.10;100186.53;5006206;28;20463;-75
2024/04/04 10:16:35;;;;;;;0.65;0.38;;;;;;;12.16;54.23;100180.53;4994853;28;20053;-75
2024/04/04 10:19:11;;;;;;;0.55;0.30;;;;;;;12.18;54.54;100189.47;4988801;28;20042;-75
2024/04/04 10:21:39;;;;;;;0.98;0.40;;;;;;;12.18;54.70;100171.13;5006444;28;20046;-75
2024/04/04 10:24:06;;;;;;;1.35;0.40;;;;;;;12.19;54.00;100175.59;4993329;28;20045;-75
2024/04/04 10:26:33;;;;;;;1.20;0.55;;;;;;;12.21;54.01;100179.06;4999436;28;20034;-74
2024/04/04 10:28:59;;;;;;;1.50;0.50;;;;;;;12.23;54.04;100181.59;4994320;28;20046;-75
2024/04/04 10:31:26;;;;;;;1.90;0.82;;;;;;;12.23;53.60;100178.88;4981790;28;20053;-75
2024/04/04 10:34:03;;;;;;;1.95;0.57;;;;;;;12.27;53.71;100183.88;5008973;28;20038;-75
2024/04/04 10:36:43;;;;;;;1.55;0.55;;;;;;;12.28;53.25;100182.00;4979524;28;20046;-74
2024/04/04 10:39:12;;;;;;;2.38;0.82;;;;;;;12.28;53.96;100192.97;4988671;28;20046;-74
2024/04/04 10:41:43;;;;;;;2.85;0.77;;;;;;;12.30;53.69;100193.66;5003001;28;20579;-74
2024/04/04 10:44:13;;;;;;;1.77;0.63;;;;;;;12.34;53.53;100190.44;5006332;28;20046;-75
2024/04/04 10:46:45;;;;;;;1.35;0.50;;;;;;;12.36;54.01;100204.00;4984052;28;20422;-75
2024/04/04 10:49:11;;;;;;;1.60;0.70;;;;;;;12.35;54.13;100188.56;5005752;28;20049;-74
2024/04/04 10:51:43;;;;;;;1.90;0.50;;;;;;;12.42;53.77;100187.75;4985691;28;20041;-75
2024/04/04 10:54:09;;;;;;;2.63;0.60;;;;;;;12.44;53.74;100191.19;4996539;28;20038;-74
2024/04/04 10:56:36;;;;;;;1.30;0.50;;;;;;;12.49;53.70;100185.19;5008904;28;20067;-74
2024/04/04 10:59:02;;;;;;;0.95;0.55;;;;;;;12.53;53.38;100192.09;4987389;28;20043;-74
2024/04/04 11:01:29;;;;;;;1.92;0.68;;;;;;;12.58;53.66;100205.31;5007774;28;20107;-74
2024/04/04 11:03:56;;;;;;;1.85;0.60;;;;;;;12.61;53.15;100197.63;4985535;28;20038;-74
2024/04/04 11:06:27;;;;;;;3.00;0.77;;;;;;;12.69;52.57;100205.09;4995484;28;20073;-74
2024/04/04 11:08:55;;;;;;;1.40;0.80;;;;;;;12.71;53.18;100205.75;4993081;28;20661;-75
2024/04/04 11:11:23;;;;;;;1.52;0.60;;;;;;;12.73;53.04;100212.81;5006735;28;20049;-74
2024/04/04 11:13:50;;;;;;;1.85;0.50;;;;;;;12.77;52.39;100213.34;4986392;28;20042;-74
2024/04/04 11:16:17;;;;;;;1.60;0.60;;;;;;;12.79;52.68;100212.16;4997553;28;20037;-73
2024/04/04 11:18:44;;;;;;;1.60;0.47;;;;;;;12.81;52.60;100218.34;4996613;28;20043;-74
2024/04/04 11:21:11;;;;;;;1.35;0.70;;;;;;;12.84;52.11;100225.41;5003425;28;20046;-74
2024/04/04 11:23:37;;;;;;;4.10;1.10;;;;;;;12.87;51.91;100225.09;4989065;28;20045;-75
2024/04/04 11:26:06;;;;;;;1.25;0.55;;;;;;;12.91;51.77;100233.84;4988891;28;20045;-75
2024/04/04 11:28:32;;;;;;;1.63;0.70;;;;;;;12.91;51.80;100226.47;4988423;28;20051;-74
2024/04/04 11:30:59;;;;;;;1.67;0.57;;;;;;;12.93;51.88;100223.56;4987151;28;20046;-73